Time;durP1;ratioP1;P1;durP2;ratioP2;P2;SDS_P1;SDS_P2;PMS_P1;PMS_P2;Temp;Humidity;BMP_temperature;BMP_pressure;BME280_temperature;BME280_humidity;BME280_pressure;Samples;Min_cycle;Max_cycle;Signal;HPM_P1;HPM_P2
2022/09/27 00:00:43;;;;;;;30.67;13.80;;;;;;;12.02;100.00;99257.97;1481898;87;21497;-77
2022/09/27 00:03:11;;;;;;;22.97;14.30;;;;;;;12.02;100.00;99257.46;1474263;87;21412;-79
2022/09/27 00:05:37;;;;;;;20.70;11.93;;;;;;;12.02;100.00;99255.32;1488839;87;22269;-78
2022/09/27 00:08:04;;;;;;;19.07;12.50;;;;;;;12.02;100.00;99256.14;1477813;88;21605;-79
2022/09/27 00:10:31;;;;;;;36.77;13.33;;;;;;;12.03;100.00;99257.80;1471949;87;21286;-79
2022/09/27 00:12:58;;;;;;;36.07;14.27;;;;;;;12.03;100.00;99254.33;1491744;87;21810;-79
2022/09/27 00:15:24;;;;;;;32.10;15.00;;;;;;;12.00;100.00;99251.55;1473358;87;21335;-78
2022/09/27 00:17:51;;;;;;;26.07;16.13;;;;;;;11.96;100.00;99244.95;1467158;87;21361;-78
2022/09/27 00:20:19;;;;;;;30.20;14.10;;;;;;;11.93;100.00;99241.34;1474365;88;21500;-79
2022/09/27 00:22:47;;;;;;;27.67;13.27;;;;;;;11.90;100.00;99233.77;1489005;87;22315;-79
2022/09/27 00:25:15;;;;;;;24.43;13.10;;;;;;;11.89;100.00;99231.62;1477078;87;22381;-78
2022/09/27 00:27:41;;;;;;;19.93;12.70;;;;;;;11.88;100.00;99233.11;1474647;87;21411;-78
2022/09/27 00:30:10;;;;;;;25.07;13.97;;;;;;;11.86;100.00;99224.55;1501349;87;22578;-78
2022/09/27 00:32:36;;;;;;;26.40;13.10;;;;;;;11.85;100.00;99226.83;1450746;89;21294;-78
2022/09/27 00:35:03;;;;;;;19.67;12.43;;;;;;;11.85;100.00;99232.13;1457065;90;21413;-78
2022/09/27 00:37:29;;;;;;;38.10;12.77;;;;;;;11.83;100.00;99228.36;1457724;90;21656;-78
2022/09/27 00:39:55;;;;;;;57.90;11.73;;;;;;;11.83;100.00;99218.26;1448935;90;21787;-78
2022/09/27 00:42:21;;;;;;;65.53;12.03;;;;;;;11.79;100.00;99212.48;1425822;91;22352;-78
2022/09/27 00:45:04;;;;;;;26.57;12.53;;;;;;;11.74;100.00;99201.13;1457496;89;21436;-78
2022/09/27 00:47:48;;;;;;;23.63;12.10;;;;;;;11.70;100.00;99199.84;1469946;88;21414;-78
2022/09/27 00:50:40;;;;;;;37.43;10.57;;;;;;;11.65;100.00;99192.97;1470932;88;21682;-79
2022/09/27 00:53:16;;;;;;;26.23;10.87;;;;;;;11.61;100.00;99188.20;1484130;87;21449;-78
2022/09/27 00:55:47;;;;;;;28.70;10.83;;;;;;;11.60;100.00;99184.73;1491244;87;21389;-78
2022/09/27 00:58:16;;;;;;;42.27;11.13;;;;;;;11.57;100.00;99178.48;1446267;90;21494;-77
2022/09/27 01:00:47;;;;;;;76.93;12.83;;;;;;;11.55;100.00;99182.32;1440851;90;21420;-77
2022/09/27 01:03:18;;;;;;;23.10;11.15;;;;;;;11.50;100.00;99178.89;1459054;89;21265;-77
2022/09/27 01:05:45;;;;;;;28.13;11.00;;;;;;;11.44;100.00;99178.30;1456152;88;21508;-77
2022/09/27 01:08:11;;;;;;;18.37;10.83;;;;;;;11.37;100.00;99185.35;1454207;89;23218;-77
2022/09/27 01:10:45;;;;;;;15.57;10.27;;;;;;;11.34;100.00;99180.42;1455238;89;21280;-76
2022/09/27 01:13:25;;;;;;;14.90;10.13;;;;;;;11.34;100.00;99174.62;1461569;89;21470;-77
2022/09/27 01:16:22;;;;;;;15.18;10.18;;;;;;;11.35;100.00;99167.48;1451075;89;22322;-77
2022/09/27 01:19:21;;;;;;;19.53;10.23;;;;;;;11.34;100.00;99168.50;1452295;89;22389;-77
2022/09/27 01:22:02;;;;;;;17.60;10.23;;;;;;;11.28;100.00;99174.03;1478666;87;21287;-78
2022/09/27 01:24:45;;;;;;;29.00;12.68;;;;;;;11.20;100.00;99169.63;1489052;87;21382;-78
2022/09/27 01:27:31;;;;;;;32.63;12.13;;;;;;;11.12;100.00;99167.06;1443633;90;22434;-78
2022/09/27 01:30:24;;;;;;;25.57;11.30;;;;;;;11.05;100.00;99160.36;1452695;89;21515;-78
2022/09/27 01:33:05;;;;;;;22.47;11.00;;;;;;;10.95;100.00;99161.62;1447702;88;21413;-77
2022/09/27 01:35:40;;;;;;;;;;;;;;;10.89;100.00;99157.05;1484938;88;21367;-79
2022/09/27 01:38:41;;;;;;;14.20;12.20;;;;;;;10.88;100.00;99150.13;1448545;88;20305;-78
2022/09/27 01:41:37;;;;;;;17.23;11.57;;;;;;;10.88;100.00;99150.13;1439918;90;21369;-78
2022/09/27 01:44:15;;;;;;;21.97;10.90;;;;;;;10.89;100.00;99155.22;1478464;88;21316;-79
2022/09/27 01:46:58;;;;;;;20.73;9.70;;;;;;;10.89;100.00;99148.60;1485095;87;22390;-79
2022/09/27 01:49:29;;;;;;;17.83;9.83;;;;;;;10.82;100.00;99149.84;1489128;87;21368;-79
2022/09/27 01:51:58;;;;;;;;;;;;;;;10.79;100.00;99148.88;1489774;87;21625;-78
2022/09/27 01:57:09;;;;;;;17.83;10.47;;;;;;;10.83;100.00;99150.14;1460833;89;21634;-78
2022/09/27 01:59:50;;;;;;;58.47;13.07;;;;;;;10.86;100.00;99141.53;1461244;89;21411;-78
2022/09/27 02:05:01;;;;;;;101.13;14.17;;;;;;;10.91;100.00;99132.05;1520528;85;24459;-76
2022/09/27 02:07:45;;;;;;;54.30;12.00;;;;;;;10.90;100.00;99137.51;1498411;86;21456;-76
2022/09/27 02:10:25;;;;;;;45.03;12.33;;;;;;;10.89;100.00;99138.02;1488459;88;21424;-77
2022/09/27 02:13:03;;;;;;;39.27;12.40;;;;;;;10.87;100.00;99136.04;1480322;88;21396;-77
2022/09/27 02:15:34;;;;;;;37.10;13.00;;;;;;;10.82;100.00;99133.14;1485847;88;22393;-77
2022/09/27 02:18:04;;;;;;;41.93;13.63;;;;;;;10.81;100.00;99137.58;1487581;88;22387;-77
2022/09/27 02:20:38;;;;;;;44.53;14.73;;;;;;;10.84;100.00;99135.90;1485532;87;21492;-77
2022/09/27 02:23:27;;;;;;;16.33;11.23;;;;;;;10.89;100.00;99131.91;1487951;87;22467;-78
2022/09/27 02:25:59;;;;;;;32.10;11.50;;;;;;;10.89;100.00;99134.55;1463877;89;21500;-77
2022/09/27 02:28:36;;;;;;;20.63;11.03;;;;;;;10.93;100.00;99134.50;1428767;90;21562;-77
2022/09/27 02:31:02;;;;;;;14.20;10.50;;;;;;;10.94;100.00;99133.52;1444595;90;21465;-76
2022/09/27 02:33:36;;;;;;;25.10;10.10;;;;;;;10.94;100.00;99130.87;1444571;90;22419;-77
2022/09/27 02:36:03;;;;;;;32.67;10.90;;;;;;;10.95;100.00;99132.50;1458628;90;21561;-77
2022/09/27 02:38:29;;;;;;;23.77;11.27;;;;;;;10.94;100.00;99127.71;1453667;89;21508;-77
2022/09/27 02:40:55;;;;;;;20.77;10.80;;;;;;;10.91;100.00;99124.61;1442955;89;22247;-75
2022/09/27 02:43:25;;;;;;;20.90;10.03;;;;;;;10.89;100.00;99126.61;1453368;90;21455;-77
2022/09/27 02:46:49;;;;;;;16.23;11.08;;;;;;;10.87;100.00;99118.84;1437626;89;21426;-78
2022/09/27 02:49:50;;;;;;;15.03;9.93;;;;;;;10.89;100.00;99118.67;1448794;90;21523;-77
2022/09/27 02:52:47;;;;;;;27.90;9.58;;;;;;;10.89;100.00;99113.38;1439299;89;21566;-77
2022/09/27 02:55:21;;;;;;;11.40;9.00;;;;;;;10.91;100.00;99104.25;1441689;90;22506;-78
2022/09/27 02:58:28;;;;;;;20.57;8.83;;;;;;;10.90;100.00;99105.23;1440417;90;21418;-75
2022/09/27 03:01:24;;;;;;;10.43;7.80;;;;;;;10.92;100.00;99111.69;1444585;89;22046;-77
2022/09/27 03:04:01;;;;;;;19.87;9.13;;;;;;;10.93;100.00;99115.45;1441553;90;22448;-77
2022/09/27 03:06:28;;;;;;;27.77;9.10;;;;;;;10.93;100.00;99117.29;1407055;91;21431;-77
2022/09/27 03:08:55;;;;;;;51.83;9.87;;;;;;;10.89;100.00;99118.67;1482846;88;22461;-77
2022/09/27 03:11:21;;;;;;;30.73;10.30;;;;;;;10.86;100.00;99115.06;1469897;88;21383;-77
2022/09/27 03:13:48;;;;;;;19.23;9.77;;;;;;;10.82;100.00;99112.78;1460480;88;22394;-77
2022/09/27 03:16:14;;;;;;;28.40;9.43;;;;;;;10.81;100.00;99119.06;1445120;89;22248;-77
2022/09/27 03:18:41;;;;;;;29.23;8.47;;;;;;;10.82;100.00;99117.26;1473438;88;21552;-77
2022/09/27 03:21:07;;;;;;;17.47;9.00;;;;;;;10.81;100.00;99118.23;1486817;88;22458;-77
2022/09/27 03:23:33;;;;;;;21.27;9.93;;;;;;;10.83;100.00;99118.38;1478676;87;21545;-77
2022/09/27 03:25:59;;;;;;;18.93;9.67;;;;;;;10.86;100.00;99113.73;1469437;88;22668;-77
2022/09/27 03:28:28;;;;;;;35.80;9.50;;;;;;;10.89;100.00;99114.70;1452338;89;21655;-77
2022/09/27 03:30:54;;;;;;;30.47;9.50;;;;;;;10.90;100.00;99110.53;1484115;88;21463;-77
2022/09/27 03:33:20;;;;;;;46.93;10.40;;;;;;;10.92;100.00;99117.80;1484154;88;21722;-77
2022/09/27 03:35:46;;;;;;;10.57;9.10;;;;;;;10.93;100.00;99115.97;1456752;87;21362;-77
2022/09/27 03:38:13;;;;;;;11.60;10.40;;;;;;;10.92;100.00;99110.36;1457034;88;21465;-77
2022/09/27 03:40:39;;;;;;;19.13;8.17;;;;;;;10.93;100.00;99111.99;1458813;89;21494;-77
2022/09/27 03:43:05;;;;;;;28.33;8.70;;;;;;;10.90;100.00;99111.04;1446810;89;21411;-77
2022/09/27 03:45:31;;;;;;;19.03;7.90;;;;;;;10.89;100.00;99110.73;1462223;88;21683;-77
2022/09/27 03:47:57;;;;;;;13.73;7.63;;;;;;;10.86;100.00;99105.80;1462979;89;21464;-78
2022/09/27 03:50:24;;;;;;;22.27;7.67;;;;;;;10.85;100.00;99111.59;1457803;89;21389;-77
2022/09/27 03:52:50;;;;;;;28.77;8.07;;;;;;;10.80;100.00;99102.05;1451010;89;21478;-78
2022/09/27 03:55:16;;;;;;;22.83;7.20;;;;;;;10.77;100.00;99111.17;1460780;89;21522;-76
2022/09/27 03:57:46;;;;;;;13.87;7.63;;;;;;;10.73;100.00;99099.31;1451121;89;22481;-77
2022/09/27 04:00:13;;;;;;;12.97;6.93;;;;;;;10.71;100.00;99096.53;1465300;88;22232;-76
2022/09/27 04:02:41;;;;;;;23.43;6.60;;;;;;;10.67;100.00;99099.20;1467860;88;21493;-77
2022/09/27 04:05:08;;;;;;;12.60;6.30;;;;;;;10.65;100.00;99104.69;1484578;88;21493;-76
2022/09/27 04:07:35;;;;;;;8.23;6.63;;;;;;;10.65;100.00;99098.07;1483135;87;21440;-77
2022/09/27 04:10:01;;;;;;;8.53;5.43;;;;;;;10.65;100.00;99099.90;1487227;88;21566;-77
2022/09/27 04:12:27;;;;;;;11.33;7.10;;;;;;;10.65;100.00;99099.39;1487587;86;22163;-77
2022/09/27 04:14:54;;;;;;;18.53;7.23;;;;;;;10.64;100.00;99100.38;1482603;86;22262;-77
2022/09/27 04:17:20;;;;;;;24.30;6.93;;;;;;;10.63;100.00;99101.39;1448915;89;21560;-77
2022/09/27 04:19:46;;;;;;;12.77;6.57;;;;;;;10.60;100.00;99101.75;1455595;89;21302;-77
2022/09/27 04:22:12;;;;;;;18.13;6.60;;;;;;;10.58;100.00;99103.75;1439323;89;21471;-77
2022/09/27 04:24:38;;;;;;;11.97;6.53;;;;;;;10.55;100.00;99104.92;1450824;89;22256;-77
2022/09/27 04:27:04;;;;;;;15.53;6.10;;;;;;;10.54;100.00;99099.83;1456381;88;21412;-77
2022/09/27 04:29:31;;;;;;;9.50;6.77;;;;;;;10.54;100.00;99099.83;1461739;89;21611;-77
2022/09/27 04:31:57;;;;;;;8.30;5.53;;;;;;;10.56;100.00;99103.13;1460328;88;21512;-77
2022/09/27 04:36:25;;;;;;;22.63;6.93;;;;;;;10.56;100.00;99104.45;1440961;89;21368;-77
2022/09/27 04:36:51;;;;;;;11.57;7.23;;;;;;;10.56;100.00;99108.41;1450515;89;22309;-78
2022/09/27 04:39:16;;;;;;;26.80;8.27;;;;;;;10.56;100.00;99108.41;1435181;89;21602;-77
2022/09/27 04:41:43;;;;;;;16.63;8.57;;;;;;;10.55;100.00;99106.75;1446115;89;21455;-77
2022/09/27 04:44:10;;;;;;;14.73;8.97;;;;;;;10.53;100.00;99115.36;1437678;89;22264;-77
2022/09/27 04:46:36;;;;;;;18.50;7.70;;;;;;;10.50;100.00;99108.63;1432634;89;21420;-77
2022/09/27 04:49:02;;;;;;;17.77;9.43;;;;;;;10.50;100.00;99107.78;1461346;89;21420;-77
2022/09/27 04:51:29;;;;;;;20.17;10.47;;;;;;;10.49;100.00;99104.32;1459293;88;22863;-77
2022/09/27 04:53:57;;;;;;;19.77;10.03;;;;;;;10.51;100.00;99112.91;1459129;88;21471;-76
2022/09/27 04:56:23;;;;;;;19.53;9.97;;;;;;;10.53;100.00;99106.95;1446691;89;21508;-77
2022/09/27 04:58:49;;;;;;;20.67;9.90;;;;;;;10.52;100.00;99109.76;1456464;89;21507;-77
2022/09/27 05:01:15;;;;;;;22.40;9.97;;;;;;;10.52;100.00;99111.08;1437476;91;21398;-77
2022/09/27 05:03:41;;;;;;;11.77;9.07;;;;;;;10.51;100.00;99110.27;1438795;91;21501;-77
2022/09/27 05:06:07;;;;;;;14.27;9.63;;;;;;;10.51;100.00;99097.55;1436074;91;21450;-76
2022/09/27 05:08:33;;;;;;;12.07;8.27;;;;;;;10.54;100.00;99097.19;1478952;86;21418;-77
2022/09/27 05:11:00;;;;;;;11.73;7.57;;;;;;;10.56;100.00;99098.65;1477587;86;21542;-77
2022/09/27 05:13:26;;;;;;;7.87;6.43;;;;;;;10.60;100.00;99096.46;1480162;88;21338;-78
2022/09/27 05:15:52;;;;;;;7.90;7.10;;;;;;;10.63;100.00;99090.80;1485355;88;21404;-77
2022/09/27 05:18:18;;;;;;;15.77;6.80;;;;;;;10.65;100.00;99087.99;1488518;88;21456;-77
2022/09/27 05:20:45;;;;;;;17.13;7.60;;;;;;;10.66;100.00;99083.83;1472752;88;21440;-77
2022/09/27 05:23:11;;;;;;;18.73;8.83;;;;;;;10.65;100.00;99080.88;1433967;91;21493;-77
2022/09/27 05:25:37;;;;;;;14.40;7.80;;;;;;;10.63;100.00;99079.41;1475157;88;21441;-77
2022/09/27 05:28:05;;;;;;;11.03;7.83;;;;;;;10.57;100.00;99078.30;1432570;91;21479;-77
2022/09/27 05:30:31;;;;;;;13.63;8.50;;;;;;;10.61;100.00;99075.09;1477538;88;22373;-77
2022/09/27 05:32:57;;;;;;;10.17;8.07;;;;;;;10.68;100.00;99081.02;1436805;91;21486;-77
2022/09/27 05:35:23;;;;;;;12.90;7.30;;;;;;;10.70;100.00;99082.45;1478325;88;21463;-77
2022/09/27 05:37:56;;;;;;;8.53;7.13;;;;;;;10.73;100.00;99086.09;1484281;88;21462;-77
2022/09/27 05:40:24;;;;;;;23.37;8.00;;;;;;;10.79;100.00;99084.54;1478760;88;22469;-77
2022/09/27 05:42:54;;;;;;;8.70;7.83;;;;;;;10.83;100.00;99085.30;1421626;91;21413;-77
2022/09/27 05:45:22;;;;;;;8.67;7.53;;;;;;;10.89;100.00;99079.78;1479443;88;21705;-76
2022/09/27 05:47:57;;;;;;;11.73;8.03;;;;;;;10.92;100.00;99075.45;1449676;88;22642;-78
2022/09/27 05:50:25;;;;;;;29.30;8.37;;;;;;;10.99;100.00;99075.05;1481430;88;21456;-77
2022/09/27 05:52:52;;;;;;;16.70;9.30;;;;;;;11.04;100.00;99074.48;1434178;91;21485;-77
2022/09/27 05:55:19;;;;;;;15.83;7.50;;;;;;;11.08;100.00;99083.72;1482912;88;21537;-77
2022/09/27 05:58:01;;;;;;;9.20;8.00;;;;;;;11.13;100.00;99085.28;1480856;88;21559;-77
2022/09/27 06:00:28;;;;;;;10.00;8.43;;;;;;;11.20;100.00;99076.94;1479107;88;22455;-76
2022/09/27 06:02:59;;;;;;;12.73;7.60;;;;;;;11.27;100.00;99077.83;1484619;88;21729;-77
2022/09/27 06:05:29;;;;;;;11.33;9.37;;;;;;;11.29;100.00;99075.02;1477885;88;21582;-77
2022/09/27 06:08:01;;;;;;;17.55;10.45;;;;;;;11.34;100.00;99079.26;1472742;88;21501;-77
2022/09/27 06:10:30;;;;;;;22.77;9.83;;;;;;;11.39;100.00;99079.50;1478169;88;22300;-77
2022/09/27 06:13:09;;;;;;;12.07;10.47;;;;;;;11.45;100.00;99081.91;1476109;88;21567;-77
2022/09/27 06:15:38;;;;;;;13.97;9.67;;;;;;;11.46;100.00;99079.59;1470593;88;21552;-76
2022/09/27 06:18:13;;;;;;;10.20;9.20;;;;;;;11.50;100.00;99078.20;1470545;88;21382;-77
2022/09/27 06:20:41;;;;;;;10.13;8.80;;;;;;;11.48;100.00;99086.86;1426201;91;21457;-77
2022/09/27 06:23:14;;;;;;;13.83;8.73;;;;;;;11.44;100.00;99085.58;1473308;88;21566;-78
2022/09/27 06:25:41;;;;;;;14.83;9.37;;;;;;;11.48;100.00;99082.89;1480507;88;21456;-77
2022/09/27 06:28:08;;;;;;;15.10;9.90;;;;;;;11.51;100.00;99082.52;1474005;88;21493;-77
2022/09/27 06:30:41;;;;;;;13.07;10.87;;;;;;;11.57;100.00;99087.06;1427774;91;21649;-77
2022/09/27 06:33:12;;;;;;;13.10;11.70;;;;;;;11.66;100.00;99085.13;1466965;88;21420;-77
2022/09/27 06:35:38;;;;;;;11.73;10.63;;;;;;;11.73;100.00;99085.49;1457388;88;21529;-79
2022/09/27 06:38:08;;;;;;;11.83;10.57;;;;;;;11.81;100.00;99085.89;1470279;88;21448;-79
2022/09/27 06:40:35;;;;;;;11.20;10.03;;;;;;;11.87;100.00;99083.02;1475215;88;21552;-79
2022/09/27 06:43:06;;;;;;;12.67;10.93;;;;;;;11.93;100.00;99079.10;1479520;88;21544;-79
2022/09/27 06:45:34;;;;;;;18.93;12.00;;;;;;;12.02;100.00;99085.09;1479667;88;21419;-77
2022/09/27 06:48:09;;;;;;;13.80;12.40;;;;;;;12.06;100.00;99083.73;1475199;88;21398;-77
2022/09/27 06:50:38;;;;;;;17.13;11.73;;;;;;;12.08;100.00;99088.31;1475297;88;21544;-78
2022/09/27 06:53:07;;;;;;;11.50;10.30;;;;;;;12.14;100.00;99086.26;1476368;88;21469;-76
2022/09/27 06:55:33;;;;;;;12.70;10.57;;;;;;;12.21;100.00;99074.88;1480839;88;21530;-78
2022/09/27 07:00:53;;;;;;;11.53;10.07;;;;;;;12.17;100.00;99073.13;1467857;88;21828;-78
2022/09/27 07:03:25;;;;;;;15.73;10.43;;;;;;;12.11;100.00;99066.75;1478107;88;21585;-77
2022/09/27 07:06:03;;;;;;;19.40;11.47;;;;;;;12.08;100.00;99067.09;1484256;87;21389;-77
2022/09/27 07:08:30;;;;;;;19.77;10.47;;;;;;;12.08;100.00;99070.27;1494635;86;21456;-78
2022/09/27 07:11:03;;;;;;;11.73;10.17;;;;;;;12.03;100.00;99063.41;1474397;88;21433;-77
2022/09/27 07:13:31;;;;;;;12.17;10.60;;;;;;;12.10;100.00;99065.59;1481844;86;21368;-77
2022/09/27 07:15:58;;;;;;;14.90;10.50;;;;;;;12.17;100.00;99072.61;1485799;88;21442;-78
2022/09/27 07:18:24;;;;;;;12.97;10.20;;;;;;;12.20;100.00;99075.39;1476400;88;21721;-78
2022/09/27 07:20:50;;;;;;;11.03;9.93;;;;;;;12.26;100.00;99074.62;1482925;88;21398;-78
2022/09/27 07:23:16;;;;;;;10.70;9.60;;;;;;;12.32;100.00;99069.88;1484450;88;22438;-78
2022/09/27 07:25:42;;;;;;;13.37;8.87;;;;;;;12.36;100.00;99070.30;1470877;88;21465;-78
2022/09/27 07:28:16;;;;;;;11.90;8.57;;;;;;;12.41;100.00;99069.23;1477890;88;21442;-78
2022/09/27 07:30:43;;;;;;;13.43;10.37;;;;;;;12.45;100.00;99067.81;1477618;88;21451;-78
2022/09/27 07:33:10;;;;;;;12.53;9.37;;;;;;;12.47;100.00;99069.78;1482241;88;21480;-78
2022/09/27 07:35:40;;;;;;;11.67;10.47;;;;;;;12.39;100.00;99075.22;1491844;86;21368;-78
2022/09/27 07:38:08;;;;;;;13.55;10.10;;;;;;;12.44;100.00;99072.82;1473198;88;21490;-78
2022/09/27 07:40:39;;;;;;;11.53;9.00;;;;;;;12.41;100.00;99081.16;1460489;88;22345;-77
2022/09/27 07:43:07;;;;;;;;;;;;;;;12.41;100.00;99074.53;1482987;88;21457;-78
2022/09/27 07:45:33;;;;;;;11.17;9.87;;;;;;;12.35;100.00;99077.96;1484398;88;20254;-78
2022/09/27 07:48:02;;;;;;;9.97;8.83;;;;;;;12.40;100.00;99072.91;1481470;88;22381;-78
2022/09/27 07:50:29;;;;;;;14.63;9.40;;;;;;;12.44;100.00;99072.00;1477634;88;21524;-78
2022/09/27 07:52:55;;;;;;;25.50;9.83;;;;;;;12.48;100.00;99070.08;1476458;86;21500;-78
2022/09/27 07:55:22;;;;;;;17.73;10.17;;;;;;;12.51;100.00;99063.57;1480849;86;21782;-78
2022/09/27 07:57:49;;;;;;;30.47;12.03;;;;;;;12.50;100.00;99070.72;1487008;86;21397;-78
2022/09/27 08:00:19;;;;;;;13.27;9.97;;;;;;;12.56;100.00;99067.29;1482003;88;21472;-78
2022/09/27 08:02:45;;;;;;;21.37;10.08;;;;;;;12.62;100.00;99064.37;1477854;88;21398;-77
2022/09/27 08:05:13;;;;;;;10.60;9.50;;;;;;;12.64;100.00;99064.48;1486143;88;21546;-77
2022/09/27 08:07:40;;;;;;;11.20;10.03;;;;;;;12.71;100.00;99071.67;1477095;88;21517;-77
2022/09/27 08:10:08;;;;;;;12.20;10.97;;;;;;;12.79;100.00;99074.18;1478971;88;22264;-77
2022/09/27 08:12:35;;;;;;;11.83;9.83;;;;;;;12.88;100.00;99073.00;1478904;88;21450;-77
2022/09/27 08:15:03;;;;;;;15.07;12.63;;;;;;;12.98;100.00;99077.47;1477861;88;21523;-77
2022/09/27 08:17:32;;;;;;;17.70;12.10;;;;;;;13.04;100.00;99079.85;1474685;88;21596;-76
2022/09/27 08:19:59;;;;;;;16.37;11.23;;;;;;;13.05;100.00;99073.00;1467350;88;21605;-79
2022/09/27 08:22:25;;;;;;;14.80;12.30;;;;;;;12.94;100.00;99072.22;1480499;88;21657;-80
2022/09/27 08:24:51;;;;;;;11.60;9.60;;;;;;;12.90;100.00;99068.84;1479851;88;21546;-79
2022/09/27 08:27:17;;;;;;;11.60;10.40;;;;;;;12.85;100.00;99056.95;1479557;88;21508;-79
2022/09/27 08:29:43;;;;;;;13.43;10.57;;;;;;;12.90;100.00;99048.41;1466333;88;21398;-79
2022/09/27 08:32:11;;;;;;;12.07;10.70;;;;;;;12.95;100.00;99043.34;1478819;88;21464;-79
2022/09/27 08:34:37;;;;;;;13.03;11.50;;;;;;;13.01;100.00;99037.23;1477304;88;21502;-79
2022/09/27 08:37:04;;;;;;;13.83;11.83;;;;;;;13.01;100.00;99046.53;1473759;88;22463;-79
2022/09/27 08:39:30;;;;;;;15.43;12.67;;;;;;;13.13;100.00;99051.28;1481189;88;21591;-75
2022/09/27 08:42:35;;;;;;;20.67;11.80;;;;;;;13.15;100.00;99050.08;1476420;88;21619;-75
2022/09/27 08:45:25;;;;;;;22.77;12.77;;;;;;;13.13;100.00;99051.28;1483047;86;22395;-79
2022/09/27 08:48:01;;;;;;;12.70;11.40;;;;;;;13.12;100.00;99051.80;1497699;86;21636;-79
2022/09/27 08:50:35;;;;;;;11.30;10.20;;;;;;;13.15;100.00;99059.86;1506201;86;22393;-79
2022/09/27 08:53:37;;;;;;;12.37;10.87;;;;;;;13.12;100.00;99057.59;1503241;86;21581;-78
2022/09/27 08:56:07;;;;;;;13.67;11.03;;;;;;;13.17;100.00;99063.95;1500757;86;21448;-79
2022/09/27 08:58:47;;;;;;;16.35;14.43;;;;;;;13.21;100.00;99067.06;1494108;86;21478;-81
2022/09/27 09:01:18;;;;;;;18.70;15.13;;;;;;;13.33;100.00;99068.16;1451083;89;21449;-81
2022/09/27 09:03:54;;;;;;;15.72;13.95;;;;;;;13.43;100.00;99059.29;1493456;86;21455;-82
2022/09/27 09:06:41;;;;;;;17.53;14.60;;;;;;;13.52;100.00;99058.12;1478927;87;21537;-82
2022/09/27 09:09:45;;;;;;;15.83;13.90;;;;;;;13.63;100.00;99054.55;1454478;88;22278;-83
2022/09/27 09:12:46;;;;;;;14.97;12.50;;;;;;;13.64;100.00;99048.23;1483273;87;21592;-82
2022/09/27 09:15:54;;;;;;;15.17;13.03;;;;;;;13.55;100.00;99048.89;1463099;88;21509;-82
2022/09/27 09:18:25;;;;;;;14.07;12.57;;;;;;;13.40;100.00;99045.07;1483872;87;22405;-83
2022/09/27 09:21:05;;;;;;;14.57;12.77;;;;;;;13.45;100.00;99041.83;1476434;88;22456;-83
2022/09/27 09:23:46;;;;;;;16.12;13.55;;;;;;;13.51;100.00;99043.17;1442751;88;21709;-83
2022/09/27 09:26:35;;;;;;;15.00;12.60;;;;;;;13.57;100.00;99045.53;1451409;88;22492;-83
2022/09/27 09:29:44;;;;;;;14.98;12.73;;;;;;;13.66;100.00;99047.50;1472532;88;21742;-82
2022/09/27 09:32:48;;;;;;;16.77;14.07;;;;;;;13.77;100.00;99048.24;1460361;88;21443;-82
2022/09/27 09:35:20;;;;;;;16.83;14.10;;;;;;;13.86;100.00;99047.02;1478208;86;21581;-82
2022/09/27 09:37:50;;;;;;;16.80;13.43;;;;;;;13.91;100.00;99052.56;1478297;87;21640;-81
2022/09/27 09:40:39;;;;;;;;;;;;;;;13.95;100.00;99044.50;1487378;87;21660;-80
2022/09/27 09:43:19;;;;;;;19.27;14.90;;;;;;;13.98;100.00;99046.75;1473534;87;20447;-84
2022/09/27 09:45:51;;;;;;;15.03;12.68;;;;;;;13.97;99.98;99038.45;1478987;87;21428;-82
2022/09/27 09:48:49;;;;;;;15.33;13.30;;;;;;;13.97;99.88;99035.78;1477385;87;21464;-83
2022/09/27 09:51:21;;;;;;;16.63;14.87;;;;;;;14.06;100.00;99042.24;1472357;88;21477;-84
2022/09/27 09:53:55;;;;;;;15.83;14.10;;;;;;;14.15;99.75;99040.49;1562641;87;21331;-83
2022/09/27 09:56:31;;;;;;;17.13;15.30;;;;;;;14.15;99.61;99035.69;1376859;89;21427;-83
2022/09/27 09:59:05;;;;;;;17.07;15.33;;;;;;;14.18;99.34;99039.27;1469030;90;21605;-83
2022/09/27 10:01:43;;;;;;;16.73;14.93;;;;;;;14.24;99.61;99038.45;1467830;87;21612;-84
2022/09/27 10:04:26;;;;;;;14.83;12.27;;;;;;;14.18;97.74;99037.45;1480383;87;22443;-83
2022/09/27 10:06:55;;;;;;;15.10;13.50;;;;;;;14.16;96.92;99033.36;1443645;88;22130;-82
2022/09/27 10:09:25;;;;;;;16.20;12.17;;;;;;;14.19;96.54;99028.44;1474870;87;21500;-83
2022/09/27 10:11:51;;;;;;;18.77;14.50;;;;;;;14.16;95.56;99027.52;1476771;86;21584;-80
2022/09/27 10:14:21;;;;;;;18.03;13.93;;;;;;;14.20;96.33;99035.91;1473636;87;21929;-84
2022/09/27 10:16:51;;;;;;;17.03;14.97;;;;;;;14.31;97.35;99035.29;1471772;87;21463;-83
2022/09/27 10:19:29;;;;;;;15.55;13.88;;;;;;;14.43;97.72;99037.62;1485311;88;21552;-83
2022/09/27 10:22:13;;;;;;;14.83;13.10;;;;;;;14.56;97.73;99029.38;1487475;88;21485;-82
2022/09/27 10:25:00;;;;;;;14.43;11.73;;;;;;;14.64;96.95;99029.12;1473811;88;21487;-83
2022/09/27 10:27:26;;;;;;;18.50;13.60;;;;;;;14.77;95.75;99026.97;1471540;88;21599;-83
2022/09/27 10:29:58;;;;;;;15.23;13.50;;;;;;;14.84;94.36;99021.91;1468067;88;22396;-82
2022/09/27 10:32:35;;;;;;;15.83;13.07;;;;;;;14.91;95.10;99013.10;1475470;88;21598;-83
2022/09/27 10:35:31;;;;;;;17.37;14.03;;;;;;;14.89;93.33;99004.78;1476626;88;21531;-83
2022/09/27 10:38:21;;;;;;;19.27;13.57;;;;;;;14.88;93.46;99003.16;1473702;88;22367;-83
2022/09/27 10:40:51;;;;;;;13.05;11.33;;;;;;;14.99;94.28;98997.70;1476268;88;21435;-83
2022/09/27 10:43:33;;;;;;;14.93;13.10;;;;;;;15.12;94.61;98999.48;1474173;88;21659;-83
2022/09/27 10:46:08;;;;;;;14.97;12.37;;;;;;;15.22;93.92;99000.34;1473754;88;21627;-83
2022/09/27 10:48:36;;;;;;;17.27;13.23;;;;;;;15.23;91.30;98998.00;1481060;88;21449;-83
2022/09/27 10:51:06;;;;;;;15.63;12.97;;;;;;;15.22;90.18;98999.86;1477883;88;21472;-83
2022/09/27 10:53:35;;;;;;;14.33;12.88;;;;;;;15.33;92.07;98995.19;1480306;88;21464;-84
2022/09/27 10:56:02;;;;;;;14.80;13.30;;;;;;;15.41;90.41;99002.63;1474961;88;22389;-83
2022/09/27 10:58:35;;;;;;;13.67;11.97;;;;;;;15.52;91.65;98997.95;1476622;88;21391;-82
2022/09/27 11:01:11;;;;;;;13.73;12.33;;;;;;;15.67;91.69;98998.98;1475613;88;21449;-82
2022/09/27 11:03:51;;;;;;;13.10;11.73;;;;;;;15.82;91.63;99001.36;1469509;88;21464;-83
2022/09/27 11:06:32;;;;;;;;;;;;;;;15.99;91.59;98994.45;1474200;88;21679;-84
2022/09/27 11:09:13;;;;;;;15.60;13.85;;;;;;;16.11;86.83;98989.23;1471812;87;20318;-85
2022/09/27 11:11:39;;;;;;;17.53;14.03;;;;;;;16.18;87.85;98978.80;1478234;87;21678;-84
2022/09/27 11:14:20;;;;;;;16.83;13.17;;;;;;;16.31;87.94;98971.17;1473498;87;21500;-83
2022/09/27 11:17:04;;;;;;;13.43;12.03;;;;;;;16.49;88.45;98966.40;1477838;87;22402;-83
2022/09/27 11:19:56;;;;;;;14.70;10.85;;;;;;;16.54;84.32;98965.19;1479873;87;21515;-83
2022/09/27 11:22:44;;;;;;;14.35;11.05;;;;;;;16.44;83.44;98962.23;1480409;87;21613;-84
2022/09/27 11:25:33;;;;;;;12.23;10.93;;;;;;;16.42;84.68;98962.97;1477367;87;21464;-83
2022/09/27 11:28:31;;;;;;;13.43;12.03;;;;;;;16.34;84.65;98965.42;1478262;87;21426;-85
2022/09/27 11:31:29;;;;;;;15.85;11.08;;;;;;;16.42;85.80;98962.97;1433943;90;21533;-83
2022/09/27 11:34:20;;;;;;;15.77;13.27;;;;;;;16.37;84.05;98959.64;1472873;88;21494;-82
2022/09/27 11:36:58;;;;;;;15.20;12.13;;;;;;;16.35;84.29;98959.56;1478760;87;22248;-85
2022/09/27 11:39:54;;;;;;;14.05;12.20;;;;;;;16.36;84.44;98953.17;1432412;90;22559;-84
2022/09/27 11:43:03;;;;;;;13.28;11.95;;;;;;;16.35;84.41;98947.55;1478648;87;22696;-84
2022/09/27 11:45:54;;;;;;;12.35;11.05;;;;;;;16.33;85.43;98941.60;1467413;87;21607;-83
2022/09/27 11:48:35;;;;;;;15.98;13.62;;;;;;;16.30;85.42;98941.52;1473777;87;21612;-83
2022/09/27 11:51:26;;;;;;;14.90;13.30;;;;;;;16.24;85.81;98936.55;1436993;90;21434;-84